Time;durP1;ratioP1;P1;durP2;ratioP2;P2;SDS_P1;SDS_P2;PMS_P1;PMS_P2;Temp;Humidity;BMP_temperature;BMP_pressure;BME280_temperature;BME280_humidity;BME280_pressure;Samples;Min_cycle;Max_cycle;Signal;HPM_P1;HPM_P2
2022/01/13 00:02:15;;;;;;;11.57;5.67;;;4.10;99.90;;;;;;4974720;28;20267;-71
2022/01/13 00:04:41;;;;;;;7.37;4.67;;;4.20;99.90;;;;;;4992728;28;20161;-72
2022/01/13 00:07:06;;;;;;;9.13;5.10;;;4.20;99.90;;;;;;4974795;28;20173;-70
2022/01/13 00:09:32;;;;;;;9.63;6.87;;;4.10;99.90;;;;;;4992039;28;20203;-70
2022/01/13 00:11:58;;;;;;;7.40;4.43;;;4.20;99.90;;;;;;4991797;28;20188;-69
2022/01/13 00:14:38;;;;;;;8.37;4.30;;;4.20;99.90;;;;;;4991846;28;20181;-68
2022/01/13 00:17:22;;;;;;;13.73;5.73;;;4.20;99.90;;;;;;4991673;28;20400;-70
2022/01/13 00:19:56;;;;;;;11.00;5.57;;;4.20;99.90;;;;;;4991530;28;20459;-70
2022/01/13 00:24:55;;;;;;;9.03;5.07;;;4.20;99.90;;;;;;4991596;28;20941;-70
2022/01/13 00:27:23;;;;;;;15.63;6.43;;;4.30;99.90;;;;;;4991528;28;20527;-70
2022/01/13 00:29:48;;;;;;;9.33;5.90;;;4.30;99.90;;;;;;4991364;28;20555;-70
2022/01/13 00:32:15;;;;;;;12.87;6.10;;;4.30;99.90;;;;;;4991334;28;20506;-71
2022/01/13 00:34:42;;;;;;;12.93;6.80;;;4.20;99.90;;;;;;4991383;28;20173;-70
2022/01/13 00:37:07;;;;;;;13.63;6.33;;;4.30;99.90;;;;;;4991389;28;20439;-70
2022/01/13 00:39:33;;;;;;;13.20;6.77;;;4.30;99.90;;;;;;4991309;28;20459;-68
2022/01/13 00:41:58;;;;;;;7.60;5.87;;;4.20;99.90;;;;;;4994301;28;20175;-68
2022/01/13 00:44:24;;;;;;;15.23;8.47;;;4.30;99.90;;;;;;4995104;28;20165;-70
2022/01/13 00:46:59;;;;;;;9.60;6.50;;;4.20;99.90;;;;;;4994815;28;20199;-69
2022/01/13 00:49:25;;;;;;;8.50;4.97;;;4.30;99.90;;;;;;4995089;28;20192;-68
2022/01/13 00:51:50;;;;;;;11.83;6.37;;;4.30;99.90;;;;;;4994751;28;20474;-70
2022/01/13 00:54:16;;;;;;;23.60;5.87;;;4.30;99.90;;;;;;4994657;28;20907;-68
2022/01/13 00:56:42;;;;;;;12.67;7.30;;;4.20;99.90;;;;;;4994768;28;20189;-70
2022/01/13 00:59:10;;;;;;;12.27;6.93;;;4.20;99.90;;;;;;4994510;28;20221;-69
2022/01/13 01:01:39;;;;;;;14.30;6.40;;;4.30;99.90;;;;;;4994894;28;20477;-69
2022/01/13 01:04:05;;;;;;;13.97;4.57;;;4.30;99.90;;;;;;4994581;28;21107;-69
2022/01/13 01:06:32;;;;;;;7.30;5.63;;;4.40;99.90;;;;;;4994482;28;20420;-69
2022/01/13 01:08:57;;;;;;;10.07;6.33;;;4.40;99.90;;;;;;4994388;28;20441;-69
2022/01/13 01:11:25;;;;;;;11.23;6.00;;;4.40;99.90;;;;;;4994495;28;20428;-71
2022/01/13 01:13:52;;;;;;;10.93;5.70;;;4.40;99.90;;;;;;4994256;28;20169;-69
2022/01/13 01:16:18;;;;;;;10.97;6.67;;;4.30;99.90;;;;;;4994491;28;20451;-69
2022/01/13 01:26:30;;;;;;;13.43;6.80;;;4.30;99.90;;;;;;4994122;28;20195;-68
2022/01/13 01:29:40;;;;;;;16.57;7.07;;;4.40;99.90;;;;;;4994023;28;20567;-69
2022/01/13 01:31:50;;;;;;;13.23;7.43;;;4.30;99.90;;;;;;4985967;28;20412;-69
2022/01/13 01:34:43;;;;;;;12.07;6.27;;;4.30;99.90;;;;;;4994138;28;20408;-70
2022/01/13 01:37:15;;;;;;;17.97;10.40;;;4.30;99.90;;;;;;4994112;28;20981;-69
2022/01/13 01:39:42;;;;;;;18.90;7.83;;;4.40;99.90;;;;;;4993901;28;20461;-71
2022/01/13 01:42:08;;;;;;;16.67;8.67;;;4.30;99.90;;;;;;4994044;28;20412;-70
2022/01/13 01:44:39;;;;;;;13.53;8.57;;;4.40;99.90;;;;;;4993755;28;20467;-70
2022/01/13 01:47:08;;;;;;;9.97;8.23;;;4.40;99.90;;;;;;4993854;28;20204;-69
2022/01/13 01:49:38;;;;;;;10.00;5.87;;;4.30;99.90;;;;;;4993750;28;20535;-71
2022/01/13 01:52:05;;;;;;;11.77;9.20;;;4.30;99.90;;;;;;4993484;28;20479;-69
2022/01/13 01:54:30;;;;;;;18.77;10.63;;;4.30;99.90;;;;;;4993416;28;20419;-70
2022/01/13 01:56:57;;;;;;;17.03;9.03;;;4.40;99.90;;;;;;4993485;28;20416;-72
2022/01/13 01:59:27;;;;;;;18.77;9.90;;;4.30;99.90;;;;;;4993324;28;20209;-69
2022/01/13 02:01:52;;;;;;;18.80;11.50;;;4.30;99.90;;;;;;4993291;28;20415;-70
2022/01/13 02:04:19;;;;;;;16.27;9.43;;;4.30;99.90;;;;;;4993243;28;20409;-70
2022/01/13 02:06:45;;;;;;;15.90;6.00;;;4.30;99.90;;;;;;4991583;28;20199;-71
2022/01/13 02:09:14;;;;;;;15.90;7.73;;;4.30;99.90;;;;;;4976951;28;20955;-69
2022/01/13 02:11:49;;;;;;;15.33;8.57;;;4.30;99.90;;;;;;4972487;28;20428;-68
2022/01/13 02:16:54;;;;;;;19.53;9.03;;;4.40;99.90;;;;;;4973884;28;20412;-70
2022/01/13 02:19:23;;;;;;;15.10;7.30;;;4.30;99.90;;;;;;4973311;28;20515;-69
2022/01/13 02:21:48;;;;;;;11.37;5.27;;;4.30;99.90;;;;;;4973599;28;20437;-71
2022/01/13 02:24:14;;;;;;;17.07;9.67;;;4.40;99.90;;;;;;4973615;28;20808;-69
2022/01/13 02:26:39;;;;;;;11.17;9.17;;;4.40;99.90;;;;;;4973461;28;20170;-69
2022/01/13 02:29:05;;;;;;;19.03;9.97;;;4.30;99.90;;;;;;4972385;28;20202;-70
2022/01/13 02:31:30;;;;;;;22.23;10.60;;;4.30;99.90;;;;;;4973680;28;20174;-69
2022/01/13 02:33:56;;;;;;;11.47;7.37;;;4.30;99.90;;;;;;4973727;28;20587;-69
2022/01/13 02:36:22;;;;;;;11.47;8.00;;;4.30;99.90;;;;;;4973627;28;20213;-70
2022/01/13 02:38:54;;;;;;;22.70;8.63;;;4.30;99.90;;;;;;4973408;28;20228;-69
2022/01/13 02:41:24;;;;;;;16.43;9.63;;;4.30;99.90;;;;;;4973466;28;20908;-69
2022/01/13 02:43:52;;;;;;;18.97;9.70;;;4.30;99.90;;;;;;4973695;28;20450;-68
2022/01/13 02:49:08;;;;;;;14.57;8.47;;;4.40;99.90;;;;;;4973341;28;21152;-69
2022/01/13 02:51:34;;;;;;;13.40;8.53;;;4.30;99.90;;;;;;4973196;28;20413;-70
2022/01/13 02:54:00;;;;;;;11.10;8.07;;;4.30;99.90;;;;;;4972938;28;20424;-69
2022/01/13 02:56:27;;;;;;;13.40;8.13;;;4.30;99.90;;;;;;4972845;28;20916;-70
2022/01/13 02:58:52;;;;;;;15.50;8.60;;;4.40;99.90;;;;;;4972866;28;20523;-70
2022/01/13 03:01:18;;;;;;;15.80;8.70;;;4.40;99.90;;;;;;4972830;28;20413;-71
2022/01/13 03:03:44;;;;;;;12.10;9.20;;;4.30;99.90;;;;;;4970902;28;20178;-70
2022/01/13 03:06:12;;;;;;;13.97;8.03;;;4.30;99.90;;;;;;4973000;28;20591;-69
2022/01/13 03:08:42;;;;;;;16.43;9.00;;;4.30;99.90;;;;;;4972773;28;20429;-71
2022/01/13 03:11:08;;;;;;;13.00;8.30;;;4.30;99.90;;;;;;4972912;28;20408;-70
2022/01/13 03:13:34;;;;;;;12.87;8.97;;;4.30;99.90;;;;;;4972704;28;20458;-69
2022/01/13 03:16:05;;;;;;;15.43;7.80;;;4.30;99.90;;;;;;4972472;28;20169;-69
2022/01/13 03:18:30;;;;;;;16.07;8.70;;;4.30;99.90;;;;;;4972936;28;20831;-69
2022/01/13 03:20:56;;;;;;;13.60;8.70;;;4.30;99.90;;;;;;4972688;28;20528;-70
2022/01/13 03:23:21;;;;;;;20.10;9.10;;;4.40;99.90;;;;;;4972792;28;20169;-69
2022/01/13 03:25:47;;;;;;;16.00;7.80;;;4.30;99.90;;;;;;4972361;28;20533;-69
2022/01/13 03:28:28;;;;;;;14.67;8.53;;;4.30;99.90;;;;;;4972679;28;20177;-69
2022/01/13 03:30:54;;;;;;;17.30;8.40;;;4.30;99.90;;;;;;4972300;28;20440;-71
2022/01/13 03:33:20;;;;;;;18.53;11.70;;;4.30;99.90;;;;;;4972443;28;20409;-69
2022/01/13 03:35:46;;;;;;;20.93;8.03;;;4.30;99.90;;;;;;4972487;28;20428;-69
2022/01/13 03:38:11;;;;;;;19.50;10.83;;;4.20;99.90;;;;;;4972168;28;20408;-71
2022/01/13 03:40:37;;;;;;;13.33;7.63;;;4.20;99.90;;;;;;4972293;28;20731;-72
2022/01/13 03:43:04;;;;;;;16.47;8.53;;;4.20;99.90;;;;;;4972105;28;20170;-70
2022/01/13 03:45:30;;;;;;;18.40;9.30;;;4.20;99.90;;;;;;4972447;28;20178;-70
2022/01/13 03:47:56;;;;;;;19.37;7.40;;;4.20;99.90;;;;;;4972422;28;20753;-69
2022/01/13 03:50:21;;;;;;;19.47;8.23;;;4.20;99.90;;;;;;4972291;28;20433;-69
2022/01/13 03:53:01;;;;;;;11.37;6.97;;;4.10;99.90;;;;;;4971989;28;20181;-70
2022/01/13 03:55:35;;;;;;;18.77;7.70;;;4.20;99.90;;;;;;4972123;28;20216;-69
2022/01/13 03:58:38;;;;;;;12.30;7.13;;;4.20;99.90;;;;;;4972570;28;20485;-69
2022/01/13 04:01:41;;;;;;;10.37;6.67;;;4.10;99.90;;;;;;4972824;28;20520;-71
2022/01/13 04:04:07;;;;;;;17.90;8.23;;;4.20;99.90;;;;;;4972623;28;20417;-70
2022/01/13 04:06:45;;;;;;;18.30;9.80;;;4.10;99.90;;;;;;4972511;28;20417;-72
2022/01/13 04:09:22;;;;;;;21.57;11.07;;;4.20;99.90;;;;;;4972455;28;20680;-70
2022/01/13 04:11:50;;;;;;;14.97;8.03;;;4.20;99.90;;;;;;4976270;28;20472;-71
2022/01/13 04:14:16;;;;;;;14.63;10.93;;;4.20;99.90;;;;;;4975797;28;20847;-72
2022/01/13 04:16:41;;;;;;;11.40;6.20;;;4.10;99.90;;;;;;4978549;28;20499;-69
2022/01/13 04:21:38;;;;;;;14.60;8.87;;;4.20;99.90;;;;;;5032274;28;20200;-68
2022/01/13 04:24:05;;;;;;;13.03;6.33;;;4.20;99.90;;;;;;5035195;28;20410;-70
2022/01/13 04:26:33;;;;;;;18.57;8.43;;;4.20;99.90;;;;;;5034702;28;20407;-69
2022/01/13 04:29:16;;;;;;;15.70;7.60;;;4.20;99.90;;;;;;5034499;28;20408;-69
2022/01/13 04:31:44;;;;;;;10.70;7.40;;;4.10;99.90;;;;;;5035042;28;20548;-69
2022/01/13 04:34:11;;;;;;;13.83;7.07;;;4.20;99.90;;;;;;5034664;28;20403;-69
2022/01/13 04:36:36;;;;;;;14.97;8.77;;;4.10;99.90;;;;;;5034601;28;20809;-70
2022/01/13 04:39:04;;;;;;;14.80;6.97;;;4.10;99.90;;;;;;5034261;28;20535;-69
2022/01/13 04:41:35;;;;;;;14.30;8.90;;;4.10;99.90;;;;;;5017052;28;20229;-69
2022/01/13 04:44:27;;;;;;;13.00;8.10;;;4.10;99.90;;;;;;5016486;28;20476;-69
2022/01/13 04:46:54;;;;;;;12.10;7.30;;;4.10;99.90;;;;;;5029545;28;20516;-69
2022/01/13 04:49:21;;;;;;;17.83;9.80;;;4.10;99.90;;;;;;5034267;28;20421;-69
2022/01/13 04:51:48;;;;;;;11.23;7.60;;;4.20;99.90;;;;;;5034338;28;20464;-70
2022/01/13 04:54:15;;;;;;;15.53;8.30;;;4.10;99.90;;;;;;5034218;28;20439;-69
2022/01/13 04:59:15;;;;;;;14.20;7.20;;;4.10;99.90;;;;;;5033943;28;20801;-69
2022/01/13 05:01:40;;;;;;;13.50;8.03;;;4.20;99.90;;;;;;5016268;28;20448;-70
2022/01/13 05:04:07;;;;;;;19.33;9.30;;;4.10;99.90;;;;;;5034019;28;20176;-69
2022/01/13 05:06:33;;;;;;;13.33;7.47;;;4.00;99.90;;;;;;5033995;28;20202;-69
2022/01/13 05:08:59;;;;;;;15.70;9.40;;;4.00;99.90;;;;;;5033902;28;20410;-69
2022/01/13 05:11:25;;;;;;;17.33;8.90;;;4.00;99.90;;;;;;5033996;28;20410;-69
2022/01/13 05:13:51;;;;;;;18.00;9.93;;;4.00;99.90;;;;;;5033725;28;20176;-69
2022/01/13 05:16:38;;;;;;;16.33;8.83;;;4.00;99.90;;;;;;5033956;28;20421;-69
2022/01/13 05:21:56;;;;;;;17.67;8.60;;;3.90;99.90;;;;;;5033910;28;20426;-68
2022/01/13 05:24:21;;;;;;;14.40;10.53;;;3.90;99.90;;;;;;5034051;28;20589;-68
2022/01/13 05:26:47;;;;;;;15.47;9.43;;;3.90;99.90;;;;;;5033202;28;20398;-69
2022/01/13 05:29:17;;;;;;;14.80;9.33;;;4.00;99.90;;;;;;5033607;28;20206;-68
2022/01/13 05:31:43;;;;;;;14.20;10.00;;;4.10;99.90;;;;;;5033698;28;20263;-68
2022/01/13 05:34:09;;;;;;;18.63;10.70;;;4.00;99.90;;;;;;5016101;28;20505;-68
2022/01/13 05:36:34;;;;;;;13.53;10.13;;;3.90;99.90;;;;;;5033652;28;20203;-68
2022/01/13 05:38:59;;;;;;;17.10;8.47;;;4.00;99.90;;;;;;5033483;28;20195;-68
2022/01/13 05:41:25;;;;;;;14.60;9.40;;;4.00;99.90;;;;;;5033594;28;20202;-69
2022/01/13 05:43:50;;;;;;;15.70;10.20;;;4.00;99.90;;;;;;5033456;28;20649;-69
2022/01/13 05:46:16;;;;;;;24.30;9.97;;;4.00;99.90;;;;;;5033400;28;20194;-69
2022/01/13 05:48:41;;;;;;;19.60;8.80;;;4.00;99.90;;;;;;5033581;28;20764;-69
2022/01/13 05:51:07;;;;;;;19.80;9.70;;;3.90;99.90;;;;;;5033326;28;20187;-69
2022/01/13 05:53:32;;;;;;;16.40;10.67;;;4.00;99.90;;;;;;5033409;28;20168;-69
2022/01/13 05:55:58;;;;;;;20.13;12.57;;;3.90;99.90;;;;;;5032944;28;20540;-70
2022/01/13 05:58:23;;;;;;;12.07;7.97;;;4.00;99.90;;;;;;5033050;28;20284;-69
2022/01/13 06:00:49;;;;;;;26.33;11.47;;;4.00;99.90;;;;;;5032690;28;20211;-69
2022/01/13 06:03:14;;;;;;;14.50;6.77;;;4.00;99.90;;;;;;5033043;28;20270;-69
2022/01/13 06:05:40;;;;;;;16.20;8.13;;;4.00;99.90;;;;;;5032882;28;20176;-69
2022/01/13 06:08:05;;;;;;;16.60;10.03;;;3.90;99.90;;;;;;5033076;28;20168;-69
2022/01/13 06:10:31;;;;;;;14.53;7.93;;;3.90;99.90;;;;;;5032554;28;20569;-69
2022/01/13 06:12:56;;;;;;;12.73;7.90;;;4.00;99.90;;;;;;5033204;28;20251;-69
2022/01/13 06:15:24;;;;;;;33.20;12.70;;;3.90;99.90;;;;;;5032571;28;20198;-69
2022/01/13 06:17:52;;;;;;;25.07;11.63;;;3.90;99.90;;;;;;5033554;28;20180;-69
2022/01/13 06:20:19;;;;;;;27.20;10.50;;;3.90;99.90;;;;;;5032330;28;20494;-69
2022/01/13 06:22:46;;;;;;;21.20;10.00;;;4.00;99.90;;;;;;5032598;28;20406;-69
2022/01/13 06:25:13;;;;;;;16.23;10.27;;;4.00;99.90;;;;;;5033652;28;20413;-69
2022/01/13 06:27:39;;;;;;;16.63;9.53;;;4.00;99.90;;;;;;5035335;28;20489;-69
2022/01/13 06:30:08;;;;;;;13.23;8.23;;;4.00;99.90;;;;;;5035289;28;20430;-69
2022/01/13 06:32:33;;;;;;;19.80;8.10;;;4.00;99.90;;;;;;5032893;28;20417;-69
2022/01/13 06:34:59;;;;;;;19.13;11.77;;;4.00;99.90;;;;;;5032363;28;20784;-69
2022/01/13 06:37:24;;;;;;;13.80;8.17;;;4.00;99.90;;;;;;5031955;28;20179;-69
2022/01/13 06:39:50;;;;;;;9.70;7.13;;;4.00;99.90;;;;;;5031622;28;20204;-69
2022/01/13 06:42:17;;;;;;;19.87;10.00;;;4.10;99.90;;;;;;5031963;28;20175;-69
2022/01/13 06:44:43;;;;;;;15.10;10.90;;;4.00;99.90;;;;;;5032104;28;20259;-69
2022/01/13 06:47:09;;;;;;;12.47;9.10;;;4.00;99.90;;;;;;5032071;28;20621;-69
2022/01/13 06:49:35;;;;;;;17.57;8.80;;;4.10;99.90;;;;;;5032285;28;20533;-68
2022/01/13 06:52:00;;;;;;;13.97;6.97;;;4.10;99.90;;;;;;5031811;28;20504;-69
2022/01/13 06:54:26;;;;;;;14.60;7.23;;;4.10;99.90;;;;;;5032002;28;20167;-69
2022/01/13 06:56:52;;;;;;;6.50;5.90;;;4.00;99.90;;;;;;5031730;28;20182;-70
2022/01/13 06:59:19;;;;;;;13.70;8.07;;;4.00;99.90;;;;;;5031682;28;20817;-69
2022/01/13 07:01:44;;;;;;;15.93;8.03;;;4.00;99.90;;;;;;5031668;28;20398;-70
2022/01/13 07:04:12;;;;;;;13.50;7.90;;;4.10;99.90;;;;;;5032034;28;20402;-69
2022/01/13 07:06:37;;;;;;;13.63;6.80;;;4.00;99.90;;;;;;5031783;28;20187;-69
2022/01/13 07:09:07;;;;;;;16.00;9.13;;;4.00;99.90;;;;;;5031901;28;20443;-69
2022/01/13 07:11:34;;;;;;;8.40;6.10;;;4.10;99.90;;;;;;5031249;28;20587;-71
2022/01/13 07:13:59;;;;;;;18.97;9.73;;;4.10;99.90;;;;;;5031793;28;20410;-69
2022/01/13 07:16:25;;;;;;;19.23;7.23;;;4.00;99.90;;;;;;5031329;28;20403;-69
2022/01/13 07:18:51;;;;;;;15.07;7.57;;;4.00;99.90;;;;;;5031621;28;20195;-69
2022/01/13 07:21:18;;;;;;;12.07;6.67;;;4.10;99.90;;;;;;5031159;28;20434;-70
2022/01/13 07:23:44;;;;;;;14.37;7.07;;;4.00;99.90;;;;;;5031690;28;20171;-69
2022/01/13 07:26:10;;;;;;;14.93;7.97;;;4.00;99.90;;;;;;5030925;28;20460;-69
2022/01/13 07:28:35;;;;;;;18.80;8.07;;;4.00;99.90;;;;;;5031568;28;20171;-69
2022/01/13 07:31:01;;;;;;;12.03;8.77;;;4.00;99.90;;;;;;5031128;28;20191;-69
2022/01/13 07:33:27;;;;;;;10.70;4.83;;;4.00;99.90;;;;;;5031135;28;20808;-68
2022/01/13 07:35:53;;;;;;;19.03;7.20;;;4.00;99.90;;;;;;5030953;28;20198;-69
2022/01/13 07:38:19;;;;;;;12.53;5.43;;;4.00;99.90;;;;;;5030888;28;20414;-71
2022/01/13 07:40:44;;;;;;;14.63;6.73;;;4.00;99.90;;;;;;5030812;28;20454;-71
2022/01/13 07:43:10;;;;;;;17.47;8.30;;;4.00;99.90;;;;;;5031731;28;20183;-69
2022/01/13 07:45:35;;;;;;;17.47;8.33;;;4.00;99.90;;;;;;5031086;28;20253;-74
2022/01/13 07:48:01;;;;;;;9.93;5.73;;;4.00;99.90;;;;;;5031097;28;20221;-69
2022/01/13 07:50:26;;;;;;;15.90;6.23;;;4.00;99.90;;;;;;5033146;28;20215;-69
2022/01/13 07:52:52;;;;;;;15.50;7.00;;;4.00;99.90;;;;;;5034743;28;20553;-69
2022/01/13 07:55:17;;;;;;;15.97;11.30;;;4.00;99.90;;;;;;5034593;28;20176;-68
2022/01/13 07:57:43;;;;;;;17.57;8.93;;;4.00;99.90;;;;;;5034565;28;20229;-68
2022/01/13 08:00:11;;;;;;;14.20;7.27;;;4.00;99.90;;;;;;5034166;28;20218;-69
2022/01/13 08:02:36;;;;;;;18.37;7.23;;;4.00;99.90;;;;;;5026094;28;20192;-69
2022/01/13 08:05:03;;;;;;;16.10;7.50;;;4.00;99.90;;;;;;5014739;28;20848;-68
2022/01/13 08:07:28;;;;;;;21.93;7.97;;;4.00;99.90;;;;;;5008070;28;20170;-68
2022/01/13 08:09:54;;;;;;;14.47;6.93;;;4.10;99.90;;;;;;5034705;28;20759;-68
2022/01/13 08:12:19;;;;;;;8.43;5.33;;;4.00;99.90;;;;;;5034368;28;20685;-68
2022/01/13 08:14:45;;;;;;;19.60;10.00;;;4.00;99.90;;;;;;5033125;28;20168;-68
2022/01/13 08:19:45;;;;;;;19.53;8.10;;;4.00;99.90;;;;;;5034791;28;20266;-68
2022/01/13 08:19:56;;;;;;;10.80;6.40;;;4.00;99.90;;;;;;5026050;28;20528;-68
2022/01/13 08:22:21;;;;;;;14.40;7.73;;;4.00;99.90;;;;;;5031947;28;20438;-68
2022/01/13 08:24:46;;;;;;;11.80;5.83;;;4.10;99.90;;;;;;5033890;28;20183;-70
2022/01/13 08:27:12;;;;;;;18.30;8.30;;;4.10;99.90;;;;;;5034049;28;20176;-71
2022/01/13 08:29:37;;;;;;;13.73;7.27;;;4.10;99.90;;;;;;5033913;28;20210;-68
2022/01/13 08:32:03;;;;;;;20.50;9.87;;;4.10;99.90;;;;;;5033594;28;20179;-68
2022/01/13 08:34:29;;;;;;;15.17;12.00;;;4.10;99.90;;;;;;5033877;28;20207;-68
2022/01/13 08:36:55;;;;;;;17.77;10.20;;;4.10;99.90;;;;;;5033484;28;20862;-68
2022/01/13 08:39:21;;;;;;;15.30;9.77;;;4.10;99.90;;;;;;5033602;28;20207;-68
2022/01/13 08:41:46;;;;;;;14.07;8.27;;;4.10;99.90;;;;;;5033489;28;20203;-69
2022/01/13 08:44:12;;;;;;;18.27;9.30;;;4.10;99.90;;;;;;5033685;28;20449;-68
2022/01/13 08:46:38;;;;;;;16.00;8.20;;;4.10;99.90;;;;;;5033637;28;20186;-68
2022/01/13 08:49:04;;;;;;;16.70;9.63;;;4.10;99.90;;;;;;5033421;28;20183;-71
2022/01/13 08:51:29;;;;;;;17.17;8.33;;;4.20;99.90;;;;;;5033356;28;20564;-71
2022/01/13 08:53:55;;;;;;;11.90;7.70;;;4.20;99.90;;;;;;5033707;28;20275;-73
2022/01/13 08:56:21;;;;;;;22.17;8.37;;;4.20;99.90;;;;;;5025593;28;20191;-71
2022/01/13 08:58:47;;;;;;;22.27;10.73;;;4.10;99.90;;;;;;5015686;28;20190;-70
2022/01/13 09:01:13;;;;;;;10.60;6.80;;;4.10;99.90;;;;;;5014266;28;20904;-70
2022/01/13 09:03:38;;;;;;;13.27;7.47;;;4.10;99.90;;;;;;5033456;28;20242;-71
2022/01/13 09:06:04;;;;;;;26.20;9.93;;;4.10;99.90;;;;;;5033519;28;20640;-69
2022/01/13 09:08:30;;;;;;;10.70;6.80;;;4.20;99.90;;;;;;5033491;28;20180;-69
2022/01/13 09:10:55;;;;;;;20.63;8.43;;;4.20;99.90;;;;;;5033496;28;20643;-68
2022/01/13 09:13:22;;;;;;;12.40;7.03;;;4.20;99.90;;;;;;5026405;28;20527;-68
2022/01/13 09:15:59;;;;;;;12.47;7.17;;;4.30;99.90;;;;;;5033047;28;20335;-68
2022/01/13 09:18:58;;;;;;;14.80;7.27;;;4.30;99.90;;;;;;5033378;28;20406;-68
2022/01/13 09:21:25;;;;;;;10.93;7.63;;;4.20;99.90;;;;;;5032780;28;20450;-68
2022/01/13 09:23:51;;;;;;;11.53;6.60;;;4.30;99.90;;;;;;5033148;28;20481;-68
2022/01/13 09:26:17;;;;;;;18.63;7.70;;;4.20;99.90;;;;;;5033270;28;20421;-69
2022/01/13 09:28:42;;;;;;;15.70;9.90;;;4.20;99.90;;;;;;5033367;28;20172;-68
2022/01/13 09:31:08;;;;;;;8.30;6.77;;;4.20;99.90;;;;;;5032774;28;20453;-70
2022/01/13 09:33:34;;;;;;;22.13;9.47;;;4.30;99.90;;;;;;5032792;28;20259;-70
2022/01/13 09:36:02;;;;;;;13.30;7.10;;;4.40;99.90;;;;;;5032994;28;20406;-69
2022/01/13 09:38:27;;;;;;;7.90;7.10;;;4.30;99.90;;;;;;5033320;28;20414;-69
2022/01/13 09:40:54;;;;;;;12.67;7.10;;;4.30;99.90;;;;;;5032708;28;20469;-69
2022/01/13 09:43:27;;;;;;;19.37;8.30;;;4.20;99.90;;;;;;5032804;28;20171;-69
2022/01/13 09:45:58;;;;;;;8.70;5.70;;;4.30;99.90;;;;;;5032740;28;20414;-69
2022/01/13 09:48:23;;;;;;;13.83;8.47;;;4.50;99.90;;;;;;5033023;28;20441;-69
2022/01/13 09:50:49;;;;;;;11.90;5.90;;;4.60;99.90;;;;;;5032370;28;20513;-69
2022/01/13 09:53:15;;;;;;;16.10;7.57;;;4.70;99.90;;;;;;5032885;28;20585;-70
2022/01/13 09:55:42;;;;;;;7.50;4.73;;;4.50;99.90;;;;;;5032575;28;20188;-69
2022/01/13 09:58:11;;;;;;;13.13;5.57;;;4.50;99.90;;;;;;5032148;28;20836;-70
2022/01/13 10:00:39;;;;;;;10.50;5.50;;;4.50;99.90;;;;;;5032530;28;20496;-69
2022/01/13 10:03:27;;;;;;;13.50;8.13;;;4.30;99.90;;;;;;5032359;28;21002;-70
2022/01/13 10:06:01;;;;;;;21.23;7.50;;;4.40;99.90;;;;;;5032315;28;20505;-69
2022/01/13 10:08:47;;;;;;;19.50;6.63;;;4.30;99.90;;;;;;5032033;28;20769;-69
2022/01/13 10:11:44;;;;;;;11.03;5.77;;;4.30;99.90;;;;;;5032506;28;20435;-69
2022/01/13 10:16:58;;;;;;;16.70;7.00;;;4.30;99.90;;;;;;5032151;28;20709;-69
2022/01/13 10:19:42;;;;;;;11.53;6.10;;;4.20;99.90;;;;;;5031982;28;20939;-70
2022/01/13 10:22:10;;;;;;;14.67;6.30;;;4.20;99.90;;;;;;5035562;28;20414;-70
2022/01/13 10:24:42;;;;;;;17.77;6.97;;;4.20;99.90;;;;;;5034903;28;20442;-70
2022/01/13 10:27:25;;;;;;;25.60;9.57;;;4.30;99.90;;;;;;5032074;28;20406;-70
2022/01/13 10:30:38;;;;;;;11.67;6.93;;;4.30;99.90;;;;;;5031898;28;20434;-70
2022/01/13 10:33:20;;;;;;;14.50;8.23;;;4.40;99.90;;;;;;4925290;28;20474;-70
2022/01/13 10:36:01;;;;;;;14.27;7.83;;;4.40;99.90;;;;;;5013750;28;20521;-70
2022/01/13 10:39:02;;;;;;;12.40;7.40;;;4.30;99.90;;;;;;5031410;28;20414;-70
2022/01/13 10:42:02;;;;;;;11.37;6.53;;;4.30;99.90;;;;;;5024440;28;20421;-70
2022/01/13 10:44:24;;;;;;;18.87;7.13;;;4.50;99.90;;;;;;5031190;28;20916;-70
2022/01/13 10:47:25;;;;;;;27.17;9.13;;;4.50;99.90;;;;;;5031504;28;20399;-70
2022/01/13 10:50:01;;;;;;;14.00;7.73;;;4.40;99.90;;;;;;5023528;28;20210;-70
2022/01/13 10:52:29;;;;;;;14.33;8.60;;;4.40;99.90;;;;;;5011451;28;20404;-70
2022/01/13 10:55:26;;;;;;;19.47;7.83;;;4.40;99.90;;;;;;5017902;28;20426;-70
2022/01/13 10:58:08;;;;;;;19.57;9.07;;;4.50;99.90;;;;;;5029660;28;20410;-70
2022/01/13 11:00:35;;;;;;;6.97;5.37;;;4.60;99.90;;;;;;5026204;23;20997;-70
2022/01/13 11:03:27;;;;;;;10.13;6.50;;;4.40;99.90;;;;;;5007849;28;20441;-70
2022/01/13 11:06:01;;;;;;;13.60;8.10;;;4.40;99.90;;;;;;5011892;28;20391;-70
2022/01/13 11:08:49;;;;;;;20.63;10.77;;;4.30;99.90;;;;;;5008424;28;21008;-68
2022/01/13 11:11:27;;;;;;;20.00;8.53;;;4.60;99.90;;;;;;4993853;28;20838;-68
2022/01/13 11:14:00;;;;;;;14.80;7.97;;;4.60;99.90;;;;;;4984047;28;20431;-68
2022/01/13 11:16:26;;;;;;;12.20;8.83;;;4.60;99.90;;;;;;4994455;28;20413;-68
2022/01/13 11:18:54;;;;;;;21.97;9.63;;;4.70;99.90;;;;;;4988797;28;20405;-69
2022/01/13 11:21:26;;;;;;;13.70;8.17;;;4.70;99.90;;;;;;4973098;28;20962;-69
2022/01/13 11:23:56;;;;;;;17.03;9.40;;;4.50;99.90;;;;;;4989862;28;20510;-70
2022/01/13 11:26:32;;;;;;;14.70;7.33;;;4.60;99.90;;;;;;4975020;28;20923;-70
2022/01/13 11:29:03;;;;;;;12.83;7.40;;;4.60;99.90;;;;;;4982834;28;20804;-70
2022/01/13 11:31:31;;;;;;;14.33;9.13;;;4.50;99.90;;;;;;4991664;28;20837;-68
2022/01/13 11:34:02;;;;;;;13.30;7.10;;;4.50;99.90;;;;;;4991438;28;20454;-69
2022/01/13 11:36:32;;;;;;;9.20;7.77;;;4.50;99.90;;;;;;4977341;28;20413;-69
2022/01/13 11:39:11;;;;;;;15.67;8.60;;;4.50;99.90;;;;;;4971317;28;20464;-69
2022/01/13 11:42:05;;;;;;;13.60;6.93;;;4.50;99.90;;;;;;4972468;28;20801;-69
2022/01/13 11:44:31;;;;;;;14.37;9.33;;;4.60;99.90;;;;;;4971933;28;20439;-69
2022/01/13 11:47:19;;;;;;;9.33;6.07;;;4.60;99.90;;;;;;4971984;28;20432;-70
2022/01/13 11:49:58;;;;;;;13.33;7.30;;;4.60;99.90;;;;;;4992807;28;20511;-69
2022/01/13 11:52:42;;;;;;;32.23;7.83;;;4.60;99.90;;;;;;4992020;28;20415;-69
2022/01/13 11:55:41;;;;;;;8.57;6.57;;;4.60;99.90;;;;;;4991729;28;20427;-69
2022/01/13 11:58:13;;;;;;;9.17;6.70;;;4.70;99.90;;;;;;4991629;28;20393;-69
2022/01/13 12:00:44;;;;;;;10.40;6.60;;;4.70;99.90;;;;;;4991500;28;20484;-68
2022/01/13 12:03:34;;;;;;;13.57;7.00;;;4.70;99.90;;;;;;4992107;28;20514;-68
2022/01/13 12:06:06;;;;;;;10.00;5.43;;;4.70;99.90;;;;;;4994893;28;20929;-70
2022/01/13 12:08:37;;;;;;;10.93;6.07;;;4.60;99.90;;;;;;5010765;28;20415;-68
2022/01/13 12:11:30;;;;;;;13.70;6.97;;;4.70;99.90;;;;;;4971985;28;20612;-68
2022/01/13 12:13:58;;;;;;;10.23;4.60;;;4.80;99.90;;;;;;4989852;28;20450;-69
2022/01/13 12:16:59;;;;;;;9.30;4.23;;;4.70;99.90;;;;;;4991137;28;20404;-69
2022/01/13 12:20:02;;;;;;;9.57;5.63;;;4.80;99.90;;;;;;4991422;28;20464;-69
2022/01/13 12:22:41;;;;;;;7.77;5.40;;;4.80;99.90;;;;;;4995815;28;20399;-68
2022/01/13 12:25:09;;;;;;;9.27;6.17;;;4.80;99.90;;;;;;5002318;28;20424;-70
2022/01/13 12:27:52;;;;;;;8.70;4.40;;;4.80;99.90;;;;;;4991130;28;20451;-70
2022/01/13 12:30:30;;;;;;;11.97;7.80;;;4.80;99.90;;;;;;4991041;28;20444;-70
2022/01/13 12:33:03;;;;;;;9.10;7.13;;;4.90;99.90;;;;;;4991376;28;20411;-70
2022/01/13 12:35:49;;;;;;;13.20;7.87;;;4.80;99.90;;;;;;4991576;28;20460;-70
2022/01/13 12:38:25;;;;;;;11.63;6.73;;;4.80;99.90;;;;;;4994894;28;20400;-70
2022/01/13 12:41:02;;;;;;;13.43;5.50;;;5.00;99.90;;;;;;5009591;28;20885;-70
2022/01/13 12:46:15;;;;;;;10.30;7.00;;;4.80;99.90;;;;;;5014761;28;20484;-69
2022/01/13 12:48:43;;;;;;;7.80;5.73;;;4.80;99.90;;;;;;5006190;28;20474;-70
2022/01/13 12:51:14;;;;;;;10.30;4.53;;;4.90;99.90;;;;;;4994390;28;20428;-69
2022/01/13 12:53:39;;;;;;;16.83;9.30;;;4.90;99.90;;;;;;4994929;28;20773;-70
2022/01/13 12:56:11;;;;;;;9.10;5.77;;;5.00;99.90;;;;;;4994947;28;20415;-69
2022/01/13 12:58:40;;;;;;;10.60;6.77;;;4.90;99.90;;;;;;4994678;28;20177;-69
2022/01/13 13:01:08;;;;;;;12.47;5.30;;;4.90;99.90;;;;;;4994226;28;20550;-70
2022/01/13 13:03:34;;;;;;;10.23;4.80;;;5.00;99.90;;;;;;4993976;28;20432;-69
2022/01/13 13:06:07;;;;;;;9.20;4.87;;;5.10;99.90;;;;;;4993778;28;20423;-71
2022/01/13 13:08:32;;;;;;;9.03;5.33;;;5.10;99.90;;;;;;4994176;28;20413;-70
2022/01/13 13:11:01;;;;;;;5.47;4.70;;;5.20;99.90;;;;;;4994347;28;20554;-71
2022/01/13 13:13:33;;;;;;;12.70;5.67;;;4.90;99.90;;;;;;4997804;28;20234;-69
2022/01/13 13:16:06;;;;;;;12.03;6.23;;;5.00;99.90;;;;;;5007926;28;20420;-68
2022/01/13 13:18:33;;;;;;;12.83;5.47;;;5.00;99.90;;;;;;4994227;28;20460;-68
2022/01/13 13:21:01;;;;;;;5.93;4.43;;;5.00;99.90;;;;;;4993922;28;20455;-67
2022/01/13 13:23:31;;;;;;;6.80;5.90;;;5.10;99.90;;;;;;4993913;28;20442;-68
2022/01/13 13:26:03;;;;;;;8.50;5.27;;;5.00;99.90;;;;;;4994080;28;20432;-68
2022/01/13 13:28:36;;;;;;;10.30;4.20;;;5.10;99.90;;;;;;4994120;28;20430;-68
2022/01/13 13:31:31;;;;;;;8.77;5.30;;;5.10;99.90;;;;;;4994739;28;20950;-67
2022/01/13 13:34:13;;;;;;;10.77;4.53;;;5.00;99.90;;;;;;4978071;28;20420;-69